Rechercher aéroport 
image banner adimage banner adimage banner ad
image banner ad

3CN2 - Santa Barbara Cottage Hospital

Situé à Santa Barbara, United States

ICAO - 3CN2, IATA -

Données fournies par Airmate  

Information générale

Coordonnées: N34°25'47" W119°43'27"
Élévation : 201 feet MSL.
 
Voir autres Aéroports à California

Données opérationnelles

Special qualification required
Heure actuelle UTC:
Heure actuelle locale:
Météo à : KSBA - Santa Barbara Muni ( 11 km )
METAR: KSBA 251053Z AUTO 00000KT 8SM OVC006 16/13 A2996 RMK AO2 SLP147 T01560133 $
TAF: KSBA 250937Z 2510/2606 VRB03KT P6SM OVC006 FM251200 11004KT 4SM BR OVC004 FM251700 20006KT P6SM BKN009 BKN120 FM252000 24008KT P6SM BKN120 OVC160
Voir NOTAMs / SUP AIP / TFR affectant cet aéroport [VIEW]
Fréquences de communication: [VIEW]

Pistes:

Coordonnées de l'aéroport

Adresse: Santa Barbara United States

Vue satellite de 3CN2